Borehamwood, United Kingdom
Current Conditions -  °F | °C
As of 9:50 AM on Wednesday 26 Nov 2014 (Local Time) from EGWU Reporting Station
Drizzle Drizzle  
Wind Chill: 46°   Ceiling: 200
Heat Index: 46°   Visibility: 1.5mi
Dew Point: 46°   Wind: 3mph
Humidity: 100%   Direction: 60°ENE
Pressure: 29.88"   Gusts: NA
Location:  51.66°N, 0.27°W
Report Text: EGWU 260950Z 06003KT 2500 -DZ FEW001 BKN002 OVC004 08/08 Q1012 TEMPO 2000 SCT001
Loading
Personal Weather Stations






























Interactive Weather Map New forecast layout! Learn more

10-Day Weather Forecast

Advertisements
Track Severe Weather on mobile